createdAt,value
2018-04-30T00:01:36.080Z,35.66
2018-04-30T00:04:04.408Z,35.06
2018-04-30T00:06:32.726Z,35.39
2018-04-30T00:09:01.208Z,35.42
2018-04-30T00:11:29.731Z,35.57
2018-04-30T00:13:58.112Z,35.20
2018-04-30T00:16:26.408Z,34.91
2018-04-30T00:18:54.727Z,34.66
2018-04-30T00:21:23.045Z,34.69
2018-04-30T00:23:51.361Z,34.72
2018-04-30T00:26:19.653Z,34.38
2018-04-30T00:28:48.029Z,34.87
2018-04-30T00:31:16.353Z,34.63
2018-04-30T00:33:44.661Z,34.48
2018-04-30T00:36:12.972Z,34.78
2018-04-30T00:38:41.340Z,35.66
2018-04-30T00:41:09.662Z,35.22
2018-04-30T00:43:37.982Z,35.43
2018-04-30T00:46:06.295Z,36.61
2018-04-30T00:48:34.601Z,36.35
2018-04-30T00:51:02.922Z,36.29
2018-04-30T00:53:31.242Z,36.29
2018-04-30T00:55:59.581Z,36.05
2018-04-30T00:58:27.907Z,36.00
2018-04-30T01:00:56.213Z,36.32
2018-04-30T01:03:24.628Z,36.75
2018-04-30T01:05:52.942Z,36.99
2018-04-30T01:08:21.252Z,37.25
2018-04-30T01:10:49.553Z,37.04
2018-04-30T01:13:17.963Z,36.81
2018-04-30T01:15:46.265Z,37.43
2018-04-30T01:18:14.572Z,37.54
2018-04-30T01:20:42.920Z,38.26
2018-04-30T01:23:11.228Z,38.90
2018-04-30T01:25:39.533Z,40.18
2018-04-30T01:28:07.886Z,41.08
2018-04-30T01:30:36.202Z,42.09
2018-04-30T01:33:04.522Z,40.90
2018-04-30T01:35:32.912Z,40.49
2018-04-30T01:38:01.285Z,42.21
2018-04-30T01:40:29.719Z,42.82
2018-04-30T01:42:58.951Z,43.12
2018-04-30T01:45:27.273Z,43.62
2018-04-30T01:47:55.585Z,43.45
2018-04-30T01:50:24.001Z,42.76
2018-04-30T01:52:52.380Z,42.45
2018-04-30T01:55:20.701Z,42.84
2018-04-30T01:57:49.035Z,42.46
2018-04-30T02:00:17.354Z,41.50
2018-04-30T02:02:45.662Z,41.08
2018-04-30T02:05:13.994Z,41.49
2018-04-30T02:07:42.452Z,41.82
2018-04-30T02:10:10.766Z,40.94
2018-04-30T02:12:39.094Z,40.87
2018-04-30T02:15:07.406Z,39.70
2018-04-30T02:17:35.720Z,38.95
2018-04-30T02:20:04.050Z,38.84
2018-04-30T02:22:32.363Z,38.33
2018-04-30T02:25:00.676Z,37.73
2018-04-30T02:27:29.015Z,36.87
2018-04-30T02:29:57.344Z,37.56
2018-04-30T02:32:25.708Z,38.11
2018-04-30T02:34:54.096Z,38.52
2018-04-30T02:37:22.473Z,39.13
2018-04-30T02:39:50.862Z,38.58
2018-04-30T02:42:19.242Z,38.86
2018-04-30T02:44:47.556Z,37.89
2018-04-30T02:47:15.899Z,37.79
2018-04-30T02:49:44.275Z,39.09
2018-04-30T02:52:12.598Z,39.06
2018-04-30T02:54:40.930Z,41.03
2018-04-30T02:57:09.252Z,41.36
2018-04-30T02:59:37.565Z,41.64
2018-04-30T03:02:05.952Z,42.17
2018-04-30T03:04:34.333Z,41.22
2018-04-30T03:07:02.752Z,40.38
2018-04-30T03:09:31.090Z,39.02
2018-04-30T03:11:59.422Z,37.52
2018-04-30T03:14:27.720Z,37.74
2018-04-30T03:16:56.102Z,38.08
2018-04-30T03:19:24.516Z,38.03
2018-04-30T03:21:52.878Z,38.27
2018-04-30T03:24:21.257Z,38.45
2018-04-30T03:26:49.637Z,38.96
2018-04-30T03:29:18.022Z,39.51
2018-04-30T03:31:46.393Z,39.86
2018-04-30T03:34:14.801Z,40.75
2018-04-30T03:36:43.145Z,41.33
2018-04-30T03:39:11.466Z,42.95
2018-04-30T03:41:39.809Z,44.12
2018-04-30T03:44:08.128Z,44.98
2018-04-30T03:46:36.549Z,48.20
2018-04-30T03:49:04.874Z,49.33
2018-04-30T03:51:33.211Z,49.71
2018-04-30T03:54:01.528Z,50.64
2018-04-30T03:56:29.854Z,51.64
2018-04-30T03:58:58.195Z,52.43
2018-04-30T04:01:38.439Z,52.18
2018-04-30T04:04:19.461Z,52.64
2018-04-30T04:06:52.785Z,52.72
2018-04-30T04:09:21.139Z,53.10
2018-04-30T04:11:49.457Z,53.40
2018-04-30T04:14:17.789Z,53.90
2018-04-30T04:16:46.101Z,54.53
2018-04-30T04:19:14.494Z,55.07
2018-04-30T04:21:42.808Z,56.11
2018-04-30T04:24:11.119Z,55.99
2018-04-30T04:26:39.412Z,56.39
2018-04-30T04:29:07.737Z,53.53
2018-04-30T04:31:36.136Z,51.72
2018-04-30T04:34:04.453Z,48.66
2018-04-30T04:36:32.792Z,48.39
2018-04-30T04:39:01.172Z,48.27
2018-04-30T04:41:29.548Z,47.82
2018-04-30T04:43:57.932Z,48.39
2018-04-30T04:46:26.324Z,48.66
2018-04-30T04:48:54.627Z,49.08
2018-04-30T04:51:22.957Z,48.49
2018-04-30T04:53:51.353Z,47.29
2018-04-30T04:56:19.663Z,46.45
2018-04-30T04:58:47.995Z,46.30
2018-04-30T05:01:16.303Z,46.59
2018-04-30T05:03:44.613Z,46.88
2018-04-30T05:06:13.023Z,46.90
2018-04-30T05:08:41.336Z,46.99
2018-04-30T05:11:09.657Z,47.29
2018-04-30T05:13:38.066Z,47.05
2018-04-30T05:16:06.446Z,46.97
2018-04-30T05:18:34.756Z,47.51
2018-04-30T05:21:03.070Z,47.51
2018-04-30T05:23:31.414Z,47.45
2018-04-30T05:25:59.719Z,48.45
2018-04-30T05:28:28.132Z,48.09
2018-04-30T05:30:56.451Z,49.06
2018-04-30T05:33:24.761Z,49.00
2018-04-30T05:35:53.177Z,48.90
2018-04-30T05:38:21.485Z,48.43
2018-04-30T05:40:49.855Z,49.04
2018-04-30T05:43:18.172Z,49.33
2018-04-30T05:45:46.485Z,49.39
2018-04-30T05:48:14.801Z,50.32
2018-04-30T05:50:43.118Z,51.29
2018-04-30T05:53:11.481Z,50.51
2018-04-30T05:55:39.878Z,50.49
2018-04-30T05:58:08.208Z,50.67
2018-04-30T06:00:36.539Z,50.73
2018-04-30T06:03:04.849Z,51.25
2018-04-30T06:05:33.164Z,50.38
2018-04-30T06:08:01.472Z,50.61
2018-04-30T06:10:29.792Z,50.45
2018-04-30T06:12:58.224Z,51.60
2018-04-30T06:15:26.606Z,51.83
2018-04-30T06:17:54.905Z,52.11
2018-04-30T06:20:23.239Z,52.96
2018-04-30T06:22:51.633Z,52.43
2018-04-30T06:25:20.013Z,54.01
2018-04-30T06:27:48.333Z,55.70
2018-04-30T06:30:16.707Z,55.37
2018-04-30T06:32:45.013Z,57.06
2018-04-30T06:35:13.465Z,57.37
2018-04-30T06:37:41.770Z,57.27
2018-04-30T06:40:10.093Z,57.51
2018-04-30T06:42:38.404Z,58.80
2018-04-30T06:45:06.733Z,59.94
2018-04-30T06:47:35.109Z,60.54
2018-04-30T06:50:03.383Z,58.92
2018-04-30T06:52:32.727Z,60.31
2018-04-30T06:55:01.033Z,60.23
2018-04-30T06:57:29.436Z,61.82
2018-04-30T06:59:57.747Z,63.39
2018-04-30T07:02:26.054Z,63.00
2018-04-30T07:04:54.370Z,63.04
2018-04-30T07:07:22.673Z,62.77
2018-04-30T07:09:51.018Z,63.40
2018-04-30T07:12:19.345Z,62.34
2018-04-30T07:14:47.669Z,61.82
2018-04-30T07:17:15.997Z,62.02
2018-04-30T07:19:44.376Z,62.11
2018-04-30T07:22:12.717Z,62.25
2018-04-30T07:24:41.026Z,61.41
2018-04-30T07:27:09.369Z,61.52
2018-04-30T07:29:37.786Z,60.23
2018-04-30T07:32:06.085Z,59.90
2018-04-30T07:34:34.418Z,59.01
2018-04-30T07:37:02.738Z,59.67
2018-04-30T07:39:31.042Z,59.47
2018-04-30T07:41:59.358Z,59.67
2018-04-30T07:44:27.752Z,59.24
2018-04-30T07:46:56.129Z,58.13
2018-04-30T07:49:24.432Z,56.80
2018-04-30T07:51:52.849Z,56.96
2018-04-30T07:54:21.173Z,58.98
2018-04-30T07:56:49.513Z,58.56
2018-04-30T07:59:17.873Z,56.98
2018-04-30T08:01:46.218Z,57.86
2018-04-30T08:04:14.636Z,55.27
2018-04-30T08:06:42.978Z,55.27
2018-04-30T08:09:11.377Z,54.37
2018-04-30T08:11:39.663Z,53.39
2018-04-30T08:14:07.968Z,54.46
2018-04-30T08:16:36.322Z,53.50
2018-04-30T08:19:04.645Z,53.13
2018-04-30T08:21:33.064Z,52.98
2018-04-30T08:24:01.357Z,52.15
2018-04-30T08:26:29.673Z,52.41
2018-04-30T08:28:57.985Z,52.34
2018-04-30T08:31:26.381Z,53.98
2018-04-30T08:33:54.714Z,53.56
2018-04-30T08:36:23.049Z,54.84
2018-04-30T08:38:51.358Z,54.35
2018-04-30T08:41:19.700Z,53.63
2018-04-30T08:43:48.025Z,53.54
2018-04-30T08:46:16.335Z,53.07
2018-04-30T08:48:44.657Z,52.15
2018-04-30T08:51:12.968Z,53.03
2018-04-30T08:53:41.272Z,52.33
2018-04-30T08:56:09.591Z,52.64
2018-04-30T08:58:37.904Z,51.22
2018-04-30T09:01:06.218Z,50.94
2018-04-30T09:03:34.545Z,50.96
2018-04-30T09:06:02.907Z,50.35
2018-04-30T09:08:31.225Z,49.79
2018-04-30T09:10:59.629Z,49.77
2018-04-30T09:13:28.557Z,50.72
2018-04-30T09:15:56.902Z,49.73
2018-04-30T09:18:25.232Z,49.76
2018-04-30T09:20:53.641Z,50.22
2018-04-30T09:23:21.967Z,49.87
2018-04-30T09:25:50.272Z,48.92
2018-04-30T09:28:18.782Z,49.53
2018-04-30T09:30:47.173Z,48.34
2018-04-30T09:33:15.582Z,48.44
2018-04-30T09:35:43.920Z,49.25
2018-04-30T09:38:12.293Z,49.65
2018-04-30T09:40:40.673Z,48.46
2018-04-30T09:43:08.988Z,49.39
2018-04-30T09:45:37.290Z,48.73
2018-04-30T09:48:05.714Z,47.01
2018-04-30T09:50:33.997Z,49.32
2018-04-30T09:53:02.313Z,49.34
2018-04-30T09:55:30.744Z,48.61
2018-04-30T09:57:59.110Z,47.13
2018-04-30T10:00:27.388Z,48.13
2018-04-30T10:02:55.717Z,46.59
2018-04-30T10:05:24.033Z,46.04
2018-04-30T10:07:52.388Z,45.25
2018-04-30T10:10:20.720Z,45.23
2018-04-30T10:12:49.022Z,45.35
2018-04-30T10:15:17.339Z,47.73
2018-04-30T10:17:45.747Z,47.34
2018-04-30T10:20:14.019Z,46.54
2018-04-30T10:22:42.389Z,45.30
2018-04-30T10:25:10.701Z,44.63
2018-04-30T10:27:39.038Z,44.63
2018-04-30T10:30:07.413Z,43.94
2018-04-30T10:32:35.893Z,44.35
2018-04-30T10:35:04.214Z,44.16
2018-04-30T10:37:33.115Z,44.30
2018-04-30T10:40:01.525Z,45.74
2018-04-30T10:42:29.848Z,45.65
2018-04-30T10:44:58.244Z,43.70
2018-04-30T10:47:27.078Z,43.21
2018-04-30T10:49:55.468Z,43.45
2018-04-30T10:52:23.873Z,43.82
2018-04-30T10:54:52.467Z,42.36
2018-04-30T10:57:21.366Z,41.61
2018-04-30T10:59:49.702Z,42.11
2018-04-30T11:02:18.076Z,42.48
2018-04-30T11:04:46.394Z,43.22
2018-04-30T11:07:14.740Z,41.92
2018-04-30T11:09:43.044Z,41.11
2018-04-30T11:12:11.381Z,41.92
2018-04-30T11:14:39.697Z,41.45
2018-04-30T11:17:08.022Z,40.48
2018-04-30T11:19:36.337Z,40.93
2018-04-30T11:22:04.653Z,40.09
2018-04-30T11:24:32.989Z,40.29
2018-04-30T11:27:01.302Z,37.99
2018-04-30T11:29:29.617Z,39.13
2018-04-30T11:31:57.951Z,39.10
2018-04-30T11:34:26.348Z,38.44
2018-04-30T11:36:54.587Z,38.36
2018-04-30T11:39:22.924Z,37.47
2018-04-30T11:41:51.260Z,37.14
2018-04-30T11:44:19.634Z,37.65
2018-04-30T11:46:47.961Z,38.07
2018-04-30T11:49:16.278Z,38.22
2018-04-30T11:51:45.540Z,38.53
2018-04-30T11:54:13.966Z,39.37
2018-04-30T11:56:42.282Z,40.40
2018-04-30T11:59:10.601Z,39.91
2018-04-30T12:01:38.920Z,40.12
2018-04-30T12:04:07.334Z,40.38
2018-04-30T12:06:35.715Z,40.04
2018-04-30T12:09:04.091Z,39.99
2018-04-30T12:11:32.475Z,40.50
2018-04-30T12:14:00.857Z,40.61
2018-04-30T12:16:29.243Z,41.01
2018-04-30T12:18:57.641Z,40.35
2018-04-30T12:21:25.981Z,35.43
2018-04-30T12:23:54.318Z,31.23
2018-04-30T12:26:22.737Z,29.97
2018-04-30T12:28:51.052Z,29.20
2018-04-30T12:31:19.369Z,27.78
2018-04-30T12:33:47.712Z,29.30
2018-04-30T12:36:16.090Z,29.44
2018-04-30T12:38:44.424Z,27.80
2018-04-30T12:41:12.733Z,27.97
2018-04-30T12:43:41.083Z,27.96
2018-04-30T12:46:09.459Z,30.60
2018-04-30T12:48:37.770Z,33.42
2018-04-30T12:51:06.118Z,33.79
2018-04-30T12:53:34.449Z,31.52
2018-04-30T12:56:02.828Z,29.45
2018-04-30T12:58:31.065Z,27.26
2018-04-30T13:00:59.424Z,25.89
2018-04-30T13:03:27.802Z,26.81
2018-04-30T13:05:56.110Z,25.74
2018-04-30T13:08:24.426Z,24.54
2018-04-30T13:10:52.737Z,24.22
2018-04-30T13:13:21.049Z,24.54
2018-04-30T13:15:49.381Z,26.11
2018-04-30T13:18:17.757Z,23.92
2018-04-30T13:20:46.063Z,23.51
2018-04-30T13:23:14.389Z,23.75
2018-04-30T13:25:42.796Z,24.14
2018-04-30T13:28:11.120Z,23.09
2018-04-30T13:30:39.548Z,23.37
2018-04-30T13:33:07.930Z,21.69
2018-04-30T13:35:36.236Z,22.29
2018-04-30T13:38:04.559Z,22.85
2018-04-30T13:40:32.886Z,22.08
2018-04-30T13:43:01.186Z,22.80
2018-04-30T13:45:29.518Z,23.04
2018-04-30T13:47:57.842Z,22.34
2018-04-30T13:50:26.170Z,21.27
2018-04-30T13:52:54.473Z,21.34
2018-04-30T13:55:22.833Z,22.85
2018-04-30T13:57:51.141Z,22.38
2018-04-30T14:00:19.480Z,21.99
2018-04-30T14:02:47.853Z,21.40
2018-04-30T14:05:16.164Z,23.84
2018-04-30T14:07:44.635Z,21.91
2018-04-30T14:10:12.992Z,21.42
2018-04-30T14:12:41.312Z,20.98
2018-04-30T14:15:09.628Z,21.48
2018-04-30T14:17:37.944Z,21.08
2018-04-30T14:20:06.252Z,20.10
2018-04-30T14:22:34.565Z,19.77
2018-04-30T14:25:02.870Z,19.84
2018-04-30T14:27:31.181Z,21.09
2018-04-30T14:29:59.501Z,21.58
2018-04-30T14:32:27.815Z,21.16
2018-04-30T14:34:56.156Z,20.66
2018-04-30T14:37:24.469Z,19.41
2018-04-30T14:39:52.776Z,18.43
2018-04-30T14:42:21.089Z,20.59
2018-04-30T14:44:49.480Z,20.71
2018-04-30T14:47:17.782Z,18.83
2018-04-30T14:49:46.084Z,18.45
2018-04-30T14:52:14.423Z,18.39
2018-04-30T14:54:42.774Z,17.10
2018-04-30T14:57:11.093Z,17.27
2018-04-30T14:59:39.477Z,17.71
2018-04-30T15:02:07.801Z,18.00
2018-04-30T15:04:36.109Z,20.82
2018-04-30T15:07:04.505Z,18.62
2018-04-30T15:09:32.757Z,17.97
2018-04-30T15:12:01.120Z,17.37
2018-04-30T15:14:29.441Z,16.67
2018-04-30T15:16:57.772Z,18.09
2018-04-30T15:19:26.128Z,18.07
2018-04-30T15:21:54.420Z,17.41
2018-04-30T15:24:22.733Z,17.48
2018-04-30T15:26:51.088Z,19.15
2018-04-30T15:29:19.405Z,17.50
2018-04-30T15:31:47.718Z,16.88
2018-04-30T15:34:16.104Z,16.60
2018-04-30T15:36:44.428Z,19.17
2018-04-30T15:39:12.782Z,22.63
2018-04-30T15:41:41.173Z,23.64
2018-04-30T15:44:09.512Z,25.91
2018-04-30T15:46:37.826Z,24.71
2018-04-30T15:49:06.172Z,27.26
2018-04-30T15:51:34.502Z,28.48
2018-04-30T15:54:02.840Z,30.03
2018-04-30T15:56:31.160Z,31.10
2018-04-30T15:58:59.472Z,30.99
2018-04-30T16:01:27.839Z,30.97
2018-04-30T16:03:56.136Z,31.74
2018-04-30T16:06:24.467Z,31.13
2018-04-30T16:08:52.840Z,31.92
2018-04-30T16:11:21.144Z,32.31
2018-04-30T16:13:49.519Z,32.39
2018-04-30T16:16:17.836Z,32.33
2018-04-30T16:18:46.249Z,32.86
2018-04-30T16:21:14.557Z,32.73
2018-04-30T16:23:42.904Z,33.14
2018-04-30T16:26:11.200Z,33.87
2018-04-30T16:28:39.613Z,33.98
2018-04-30T16:31:07.940Z,34.35
2018-04-30T16:33:36.245Z,34.81
2018-04-30T16:36:04.567Z,34.48
2018-04-30T16:38:32.925Z,34.76
2018-04-30T16:41:01.307Z,36.27
2018-04-30T16:43:29.624Z,35.83
2018-04-30T16:45:58.000Z,35.55
2018-04-30T16:48:26.336Z,34.94
2018-04-30T16:50:54.712Z,35.31
2018-04-30T16:53:23.092Z,35.60
2018-04-30T16:55:51.516Z,36.17
2018-04-30T16:58:19.826Z,37.06
2018-04-30T17:00:48.142Z,37.49
2018-04-30T17:03:16.517Z,37.63
2018-04-30T17:05:44.835Z,37.30
2018-04-30T17:08:13.138Z,37.43
2018-04-30T17:10:41.538Z,37.73
2018-04-30T17:13:09.863Z,36.84
2018-04-30T17:15:38.185Z,36.38
2018-04-30T17:18:06.505Z,36.82
2018-04-30T17:20:35.808Z,37.89
2018-04-30T17:23:04.195Z,37.74
2018-04-30T17:25:32.482Z,38.77
2018-04-30T17:28:00.852Z,39.18
2018-04-30T17:30:29.212Z,39.19
2018-04-30T17:32:57.556Z,39.67
2018-04-30T17:35:25.929Z,39.33
2018-04-30T17:37:54.269Z,39.92
2018-04-30T17:40:22.576Z,40.85
2018-04-30T17:42:51.060Z,41.62
2018-04-30T17:45:19.366Z,41.32
2018-04-30T17:47:47.698Z,40.64
2018-04-30T17:50:16.104Z,41.03
2018-04-30T17:52:44.441Z,40.96
2018-04-30T17:55:12.857Z,41.30
2018-04-30T17:57:41.281Z,41.97
2018-04-30T18:00:09.615Z,42.20
2018-04-30T18:02:38.035Z,43.75
2018-04-30T18:05:06.413Z,44.36
2018-04-30T18:07:34.806Z,44.25
2018-04-30T18:10:03.124Z,42.20
2018-04-30T18:12:31.497Z,41.88
2018-04-30T18:14:59.878Z,41.89
2018-04-30T18:17:28.261Z,42.53
2018-04-30T18:19:56.613Z,44.34
2018-04-30T18:22:24.928Z,46.40
2018-04-30T18:24:53.266Z,48.19
2018-04-30T18:27:21.612Z,47.14
2018-04-30T18:29:49.943Z,48.33
2018-04-30T18:32:18.338Z,48.47
2018-04-30T18:34:46.709Z,48.44
2018-04-30T18:37:15.089Z,48.86
2018-04-30T18:39:43.409Z,50.30
2018-04-30T18:42:11.729Z,51.47
2018-04-30T18:44:40.065Z,55.65
2018-04-30T18:47:08.393Z,56.21
2018-04-30T18:49:36.811Z,58.47
2018-04-30T18:52:05.154Z,54.13
2018-04-30T18:54:33.536Z,54.58
2018-04-30T18:57:01.980Z,55.78
2018-04-30T18:59:30.364Z,54.70
2018-04-30T19:01:58.766Z,57.74
2018-04-30T19:04:27.078Z,54.75
2018-04-30T19:06:55.516Z,60.74
2018-04-30T19:09:23.901Z,57.76
2018-04-30T19:11:52.229Z,59.31
2018-04-30T19:14:20.551Z,58.93
2018-04-30T19:16:48.873Z,60.90
2018-04-30T19:19:17.225Z,59.28
2018-04-30T19:21:45.572Z,59.88
2018-04-30T19:24:13.974Z,58.53
2018-04-30T19:26:42.323Z,61.99
2018-04-30T19:29:10.633Z,59.36
2018-04-30T19:31:39.001Z,66.97
2018-04-30T19:34:08.021Z,67.35
2018-04-30T19:36:36.337Z,67.95
2018-04-30T19:39:05.409Z,69.10
2018-04-30T19:41:33.705Z,68.62
2018-04-30T19:44:02.047Z,69.50
2018-04-30T19:46:30.405Z,70.02
2018-04-30T19:48:58.745Z,71.33
2018-04-30T19:51:27.151Z,70.90
2018-04-30T19:53:55.529Z,71.32
2018-04-30T19:56:23.915Z,62.94
2018-04-30T19:58:52.237Z,60.92
2018-04-30T20:01:20.557Z,61.08
2018-04-30T20:03:48.890Z,62.79
2018-04-30T20:06:17.205Z,66.54
2018-04-30T20:08:45.611Z,65.88
2018-04-30T20:11:13.858Z,66.36
2018-04-30T20:13:42.203Z,67.35
2018-04-30T20:16:10.509Z,69.18
2018-04-30T20:18:38.897Z,62.18
2018-04-30T20:21:07.234Z,63.12
2018-04-30T20:23:35.540Z,64.29
2018-04-30T20:26:03.920Z,63.91
2018-04-30T20:28:32.312Z,63.02
2018-04-30T20:31:00.700Z,62.33
2018-04-30T20:33:29.064Z,62.84
2018-04-30T20:35:57.458Z,67.23
2018-04-30T20:38:25.752Z,66.40
2018-04-30T20:40:54.106Z,63.17
2018-04-30T20:43:22.425Z,59.90
2018-04-30T20:45:50.768Z,63.05
2018-04-30T20:48:19.151Z,64.29
2018-04-30T20:50:47.473Z,65.78
2018-04-30T20:53:15.784Z,69.28
2018-04-30T20:55:44.193Z,63.94
2018-04-30T20:58:12.567Z,66.08
2018-04-30T21:00:40.934Z,63.82
2018-04-30T21:03:09.253Z,56.49
2018-04-30T21:05:37.592Z,56.59
2018-04-30T21:08:05.888Z,55.83
2018-04-30T21:10:34.232Z,51.53
2018-04-30T21:13:02.544Z,53.31
2018-04-30T21:15:30.880Z,59.63
2018-04-30T21:17:59.270Z,55.43
2018-04-30T21:20:27.622Z,55.82
2018-04-30T21:22:56.026Z,58.24
2018-04-30T21:25:24.341Z,64.51
2018-04-30T21:27:52.678Z,62.77
2018-04-30T21:30:21.065Z,61.60
2018-04-30T21:32:49.399Z,61.12
2018-04-30T21:35:17.705Z,66.69
2018-04-30T21:37:46.041Z,68.00
2018-04-30T21:40:15.388Z,64.15
2018-04-30T21:42:43.761Z,63.68
2018-04-30T21:45:12.078Z,62.76
2018-04-30T21:47:40.429Z,66.72
2018-04-30T21:50:08.748Z,68.00
2018-04-30T21:52:37.182Z,67.66
2018-04-30T21:55:05.493Z,61.04
2018-04-30T21:57:33.944Z,59.66
2018-04-30T22:00:02.321Z,63.67
2018-04-30T22:02:30.637Z,65.05
2018-04-30T22:04:58.960Z,66.83
2018-04-30T22:07:27.357Z,66.79
2018-04-30T22:09:55.661Z,66.73
2018-04-30T22:12:23.993Z,66.57
2018-04-30T22:14:52.309Z,66.57
2018-04-30T22:17:20.665Z,66.55
2018-04-30T22:19:49.028Z,64.42
2018-04-30T22:22:17.380Z,66.56
2018-04-30T22:24:45.697Z,66.43
2018-04-30T22:27:14.014Z,62.70
2018-04-30T22:29:42.342Z,62.98
2018-04-30T22:32:10.720Z,65.40
2018-04-30T22:34:39.061Z,67.44
2018-04-30T22:37:07.366Z,67.92
2018-04-30T22:39:35.757Z,68.75
2018-04-30T22:42:04.137Z,69.22
2018-04-30T22:44:32.517Z,69.58
2018-04-30T22:47:00.837Z,69.64
2018-04-30T22:49:29.169Z,68.24
2018-04-30T22:51:57.489Z,65.35
2018-04-30T22:54:25.832Z,64.23
2018-04-30T22:56:54.145Z,64.66
2018-04-30T22:59:22.586Z,62.18
2018-04-30T23:01:50.964Z,61.82
2018-04-30T23:04:19.304Z,60.18
2018-04-30T23:06:47.628Z,62.19
2018-04-30T23:09:15.988Z,63.50
2018-04-30T23:11:44.370Z,61.44
2018-04-30T23:14:12.793Z,62.15
2018-04-30T23:16:41.105Z,61.58
2018-04-30T23:19:09.504Z,59.04
2018-04-30T23:21:37.877Z,58.82
2018-04-30T23:24:06.253Z,58.95
2018-04-30T23:26:34.573Z,59.55
2018-04-30T23:29:02.913Z,59.62
2018-04-30T23:31:31.289Z,59.15
2018-04-30T23:33:59.664Z,59.31
2018-04-30T23:36:28.048Z,59.17
2018-04-30T23:38:56.417Z,59.84
2018-04-30T23:41:24.784Z,59.58
2018-04-30T23:43:53.092Z,62.16
2018-04-30T23:46:21.457Z,64.28
2018-04-30T23:48:49.770Z,65.10
2018-04-30T23:51:18.139Z,65.15
2018-04-30T23:53:46.449Z,64.88
2018-04-30T23:56:14.797Z,64.89
2018-04-30T23:58:43.109Z,65.17
